Time;durP1;ratioP1;P1;durP2;ratioP2;P2;SDS_P1;SDS_P2;PMS_P1;PMS_P2;Temp;Humidity;BMP_temperature;BMP_pressure;BME280_temperature;BME280_humidity;BME280_pressure;Samples;Min_cycle;Max_cycle;Signal;HPM_P1;HPM_P2
2021/01/13 00:02:23;;;;;;;16.20;3.63;;;;;;;;;;5072375;28;20059;-80
2021/01/13 00:04:49;;;;;;;16.48;4.95;;;;;;;;;;5072237;28;20085;-80
2021/01/13 00:07:16;;;;;;;25.63;5.38;;;;;;;;;;5072007;28;20024;-81
2021/01/13 00:09:42;;;;;;;43.90;11.07;;;;;;;;;;5072158;28;20421;-80
2021/01/13 00:12:08;;;;;;;90.80;21.90;;;;;;;;;;5071854;28;20058;-80
2021/01/13 00:14:34;;;;;;;78.68;19.50;;;;;;;;;;5072566;28;20052;-81
2021/01/13 00:17:00;;;;;;;100.53;23.35;;;;;;;;;;5071948;28;20166;-81
2021/01/13 00:19:26;;;;;;;37.67;9.82;;;;;;;;;;5071960;28;20040;-81
2021/01/13 00:21:53;;;;;;;28.13;6.30;;;;;;;;;;5071814;28;20449;-81
2021/01/13 00:24:20;;;;;;;29.65;7.80;;;;;;;;;;5071668;28;20063;-82
2021/01/13 00:26:46;;;;;;;59.35;13.35;;;;;;;;;;5071940;28;20020;-80
2021/01/13 00:29:13;;;;;;;14.57;3.95;;;;;;;;;;5073165;28;20020;-81
2021/01/13 00:31:39;;;;;;;25.00;7.60;;;;;;;;;;5071741;28;20346;-81
2021/01/13 00:34:06;;;;;;;23.83;9.50;;;;;;;;;;5071506;28;20361;-81
2021/01/13 00:36:32;;;;;;;23.30;8.95;;;;;;;;;;5071836;28;20398;-80
2021/01/13 00:38:58;;;;;;;31.67;11.13;;;;;;;;;;5071249;28;20025;-81
2021/01/13 00:41:25;;;;;;;23.65;7.55;;;;;;;;;;5071090;28;20020;-80
2021/01/13 00:43:52;;;;;;;52.70;15.80;;;;;;;;;;5071501;28;20452;-81
2021/01/13 00:46:19;;;;;;;49.97;15.07;;;;;;;;;;5071198;28;20020;-80
2021/01/13 00:48:45;;;;;;;22.52;5.75;;;;;;;;;;5071567;28;20025;-81
2021/01/13 00:51:11;;;;;;;16.58;5.82;;;;;;;;;;5071264;28;20070;-81
2021/01/13 00:53:37;;;;;;;24.30;5.80;;;;;;;;;;5071442;28;20407;-81
2021/01/13 00:56:03;;;;;;;19.55;5.00;;;;;;;;;;5072574;28;20020;-81
2021/01/13 00:58:30;;;;;;;14.75;4.65;;;;;;;;;;5071472;28;20074;-80
2021/01/13 01:00:56;;;;;;;19.45;5.55;;;;;;;;;;5071264;28;20461;-80
2021/01/13 01:03:22;;;;;;;18.25;4.88;;;;;;;;;;5071055;28;20017;-81
2021/01/13 01:05:49;;;;;;;13.65;4.13;;;;;;;;;;5071355;28;20016;-81
2021/01/13 01:08:15;;;;;;;18.85;4.82;;;;;;;;;;5071104;28;20023;-80
2021/01/13 01:10:41;;;;;;;12.82;2.85;;;;;;;;;;5071120;28;20028;-80
2021/01/13 01:13:07;;;;;;;12.13;3.25;;;;;;;;;;5070883;28;20016;-80
2021/01/13 01:15:36;;;;;;;10.57;2.80;;;;;;;;;;5071203;28;20046;-81
2021/01/13 01:18:03;;;;;;;14.05;2.67;;;;;;;;;;5071159;28;20456;-80
2021/01/13 01:20:29;;;;;;;12.93;3.58;;;;;;;;;;5071071;28;20031;-81
2021/01/13 01:22:57;;;;;;;18.25;3.05;;;;;;;;;;5071018;28;20024;-80
2021/01/13 01:25:24;;;;;;;9.95;2.70;;;;;;;;;;5071730;28;20132;-79
2021/01/13 01:27:50;;;;;;;18.02;2.47;;;;;;;;;;5070518;28;20015;-81
2021/01/13 01:30:16;;;;;;;12.73;3.17;;;;;;;;;;5071973;28;20029;-81
2021/01/13 01:32:43;;;;;;;16.88;2.42;;;;;;;;;;5070733;28;20021;-80
2021/01/13 01:35:09;;;;;;;13.15;1.80;;;;;;;;;;5070810;28;20016;-79
2021/01/13 01:37:36;;;;;;;8.85;1.52;;;;;;;;;;5072267;28;20032;-80
2021/01/13 01:40:05;;;;;;;10.73;1.88;;;;;;;;;;5070931;28;20500;-80
2021/01/13 01:42:32;;;;;;;8.90;1.67;;;;;;;;;;5070659;28;20159;-80
2021/01/13 01:44:58;;;;;;;16.20;3.58;;;;;;;;;;5072559;28;20044;-80
2021/01/13 01:47:43;;;;;;;8.00;1.73;;;;;;;;;;5070577;28;20097;-80
2021/01/13 01:50:09;;;;;;;6.82;1.67;;;;;;;;;;5071895;28;20017;-80
2021/01/13 01:52:39;;;;;;;10.13;1.83;;;;;;;;;;5070945;28;20020;-80
2021/01/13 01:55:06;;;;;;;7.45;1.33;;;;;;;;;;5070858;28;20020;-80
2021/01/13 01:57:35;;;;;;;7.90;1.75;;;;;;;;;;5070637;28;20025;-80
2021/01/13 02:00:02;;;;;;;8.52;1.85;;;;;;;;;;5071029;28;20025;-80
2021/01/13 02:02:36;;;;;;;11.70;1.88;;;;;;;;;;5070718;28;20369;-80
2021/01/13 02:05:03;;;;;;;14.30;1.42;;;;;;;;;;5070673;28;20016;-80
2021/01/13 02:07:31;;;;;;;12.23;1.55;;;;;;;;;;5072001;28;20091;-81
2021/01/13 02:09:57;;;;;;;10.60;1.48;;;;;;;;;;5071963;28;20483;-81
2021/01/13 02:12:46;;;;;;;12.48;2.40;;;;;;;;;;5053699;28;20032;-81
2021/01/13 02:15:12;;;;;;;12.20;2.03;;;;;;;;;;5053839;28;20036;-81
2021/01/13 02:17:39;;;;;;;7.43;1.27;;;;;;;;;;5070248;28;20035;-81
2021/01/13 02:20:07;;;;;;;12.00;2.53;;;;;;;;;;5070426;28;20016;-81
2021/01/13 02:22:37;;;;;;;5.47;1.40;;;;;;;;;;5070233;28;20024;-81
2021/01/13 02:25:14;;;;;;;14.93;2.45;;;;;;;;;;5071502;28;20100;-81
2021/01/13 02:27:47;;;;;;;7.13;1.30;;;;;;;;;;5067922;28;20056;-81
2021/01/13 02:30:14;;;;;;;10.27;2.20;;;;;;;;;;5059931;28;20068;-81
2021/01/13 02:32:43;;;;;;;12.55;2.15;;;;;;;;;;5070456;28;20111;-81
2021/01/13 02:35:16;;;;;;;10.70;1.80;;;;;;;;;;5052882;28;20024;-81
2021/01/13 02:37:43;;;;;;;13.70;2.35;;;;;;;;;;5052840;28;20087;-80
2021/01/13 02:40:11;;;;;;;12.38;1.63;;;;;;;;;;5053989;28;20052;-81
2021/01/13 02:42:37;;;;;;;12.32;1.98;;;;;;;;;;5053482;28;20040;-81
2021/01/13 02:45:09;;;;;;;18.73;3.05;;;;;;;;;;5055514;28;20099;-81
2021/01/13 02:47:54;;;;;;;14.50;2.50;;;;;;;;;;5054965;28;20025;-81
2021/01/13 02:50:27;;;;;;;13.02;2.30;;;;;;;;;;5053423;28;20033;-81
2021/01/13 02:52:59;;;;;;;8.25;2.00;;;;;;;;;;5054964;28;20025;-81
2021/01/13 02:55:28;;;;;;;14.05;2.70;;;;;;;;;;5053330;28;20112;-81
2021/01/13 02:57:57;;;;;;;16.52;3.55;;;;;;;;;;5053642;28;20028;-81
2021/01/13 03:00:23;;;;;;;11.57;2.60;;;;;;;;;;5053292;28;20032;-81
2021/01/13 03:02:51;;;;;;;9.68;2.17;;;;;;;;;;5053533;28;20025;-80
2021/01/13 03:05:17;;;;;;;13.40;2.60;;;;;;;;;;5054580;28;20060;-80
2021/01/13 03:07:45;;;;;;;15.48;2.88;;;;;;;;;;5052745;28;20049;-81
2021/01/13 03:10:13;;;;;;;10.88;2.00;;;;;;;;;;5050887;28;20029;-81
2021/01/13 03:12:40;;;;;;;11.30;2.33;;;;;;;;;;5053623;28;20039;-81
2021/01/13 03:15:07;;;;;;;9.90;2.17;;;;;;;;;;5053313;28;20013;-81
2021/01/13 03:17:36;;;;;;;13.90;2.40;;;;;;;;;;5053016;28;20636;-81
2021/01/13 03:20:21;;;;;;;17.05;3.15;;;;;;;;;;5054516;28;20147;-81
2021/01/13 03:22:54;;;;;;;7.35;2.20;;;;;;;;;;5064643;28;20475;-81
2021/01/13 03:25:21;;;;;;;12.35;2.50;;;;;;;;;;5072846;28;20012;-81
2021/01/13 03:27:48;;;;;;;14.93;3.47;;;;;;;;;;5074369;28;20074;-81
2021/01/13 03:30:14;;;;;;;11.27;2.00;;;;;;;;;;5072871;28;20012;-81
2021/01/13 03:32:56;;;;;;;14.05;2.22;;;;;;;;;;5073179;28;20025;-81
2021/01/13 03:35:36;;;;;;;13.88;3.03;;;;;;;;;;5074112;28;20028;-81
2021/01/13 03:38:02;;;;;;;9.80;2.60;;;;;;;;;;5072897;28;20027;-81
2021/01/13 03:40:29;;;;;;;15.82;2.67;;;;;;;;;;5073891;28;20099;-80
2021/01/13 03:42:57;;;;;;;14.27;3.00;;;;;;;;;;5073638;28;20072;-81
2021/01/13 03:45:32;;;;;;;15.95;2.70;;;;;;;;;;5072507;28;20020;-80
2021/01/13 03:48:16;;;;;;;7.43;3.08;;;;;;;;;;5072465;28;20024;-81
2021/01/13 03:50:47;;;;;;;12.65;2.75;;;;;;;;;;5071784;28;20024;-81
2021/01/13 03:53:14;;;;;;;8.35;1.77;;;;;;;;;;5072657;28;20111;-81
2021/01/13 03:55:41;;;;;;;12.38;1.73;;;;;;;;;;5072513;28;20013;-81
2021/01/13 03:58:15;;;;;;;11.35;1.60;;;;;;;;;;5072600;28;20027;-79
2021/01/13 04:00:41;;;;;;;9.50;1.98;;;;;;;;;;5072515;28;20044;-82
2021/01/13 04:03:13;;;;;;;8.98;1.40;;;;;;;;;;5072401;28;20016;-82
2021/01/13 04:05:52;;;;;;;13.27;1.52;;;;;;;;;;5073436;28;20504;-82
2021/01/13 04:08:18;;;;;;;13.57;2.13;;;;;;;;;;5070995;28;20420;-81
2021/01/13 04:10:44;;;;;;;11.75;1.80;;;;;;;;;;5072134;28;20025;-82
2021/01/13 04:13:31;;;;;;;13.27;1.60;;;;;;;;;;5072306;28;20016;-82
2021/01/13 04:16:00;;;;;;;8.57;1.65;;;;;;;;;;5072806;28;20071;-82
2021/01/13 04:18:26;;;;;;;14.38;2.60;;;;;;;;;;5073272;28;20024;-82
2021/01/13 04:20:52;;;;;;;15.95;1.65;;;;;;;;;;5071959;28;20093;-82
2021/01/13 04:23:18;;;;;;;15.85;1.95;;;;;;;;;;5072833;28;20069;-81
2021/01/13 04:25:44;;;;;;;13.20;1.65;;;;;;;;;;5072968;28;20051;-81
2021/01/13 04:28:10;;;;;;;10.18;2.22;;;;;;;;;;5072078;28;20027;-81
2021/01/13 04:30:37;;;;;;;11.10;2.35;;;;;;;;;;5072875;28;20068;-81
2021/01/13 04:33:03;;;;;;;12.13;1.58;;;;;;;;;;5071788;28;20013;-81
2021/01/13 04:35:29;;;;;;;13.68;1.60;;;;;;;;;;5071454;28;20023;-81
2021/01/13 04:37:56;;;;;;;9.45;2.08;;;;;;;;;;5071626;28;20477;-81
2021/01/13 04:40:22;;;;;;;6.72;0.95;;;;;;;;;;5071638;28;20020;-81
2021/01/13 04:43:08;;;;;;;7.18;1.35;;;;;;;;;;5071080;28;20047;-81
2021/01/13 04:45:35;;;;;;;13.18;1.60;;;;;;;;;;5071157;28;20059;-81
2021/01/13 04:48:05;;;;;;;15.15;1.83;;;;;;;;;;5071648;28;20051;-81
2021/01/13 04:50:34;;;;;;;10.77;1.60;;;;;;;;;;5071349;28;20368;-82
2021/01/13 04:53:00;;;;;;;10.40;1.52;;;;;;;;;;5072904;28;20326;-81
2021/01/13 04:55:28;;;;;;;13.57;2.55;;;;;;;;;;5072573;28;20027;-81
2021/01/13 04:58:13;;;;;;;8.23;2.08;;;;;;;;;;5071577;28;20543;-81
2021/01/13 05:00:58;;;;;;;9.73;1.98;;;;;;;;;;5070904;28;20095;-81
2021/01/13 05:03:36;;;;;;;8.38;1.65;;;;;;;;;;5071596;28;20020;-82
2021/01/13 05:06:14;;;;;;;13.40;1.85;;;;;;;;;;5072246;28;20390;-81
2021/01/13 05:08:51;;;;;;;12.82;1.77;;;;;;;;;;5070951;28;20031;-82
2021/01/13 05:11:18;;;;;;;8.98;1.98;;;;;;;;;;5071157;28;20111;-82
2021/01/13 05:13:47;;;;;;;9.32;1.52;;;;;;;;;;5071156;28;20021;-81
2021/01/13 05:16:14;;;;;;;15.57;2.53;;;;;;;;;;5071138;28;20055;-82
2021/01/13 05:18:43;;;;;;;8.63;1.60;;;;;;;;;;5070941;28;20020;-80
2021/01/13 05:21:16;;;;;;;10.43;1.65;;;;;;;;;;5070818;28;20024;-81
2021/01/13 05:23:45;;;;;;;9.55;1.75;;;;;;;;;;5072076;28;20043;-81
2021/01/13 05:26:16;;;;;;;15.73;2.13;;;;;;;;;;5071063;28;20021;-80
2021/01/13 05:28:56;;;;;;;17.42;2.78;;;;;;;;;;5070884;28;20020;-81
2021/01/13 05:31:22;;;;;;;;;;;;;;;;;;5071287;28;20032;-81
2021/01/13 05:33:48;;;;;;;7.72;1.65;;;;;;;;;;5071116;28;19907;-81
2021/01/13 05:36:15;;;;;;;16.23;1.85;;;;;;;;;;5071264;28;20021;-81
2021/01/13 05:39:03;;;;;;;13.15;2.42;;;;;;;;;;5070870;28;20115;-81
2021/01/13 05:41:30;;;;;;;12.20;2.35;;;;;;;;;;5071625;28;20023;-80
2021/01/13 05:43:56;;;;;;;17.45;2.80;;;;;;;;;;5070862;28;20471;-80
2021/01/13 05:46:22;;;;;;;14.02;2.33;;;;;;;;;;5070717;28;20017;-79
2021/01/13 05:48:49;;;;;;;14.23;2.38;;;;;;;;;;5070874;28;20024;-80
2021/01/13 05:51:15;;;;;;;16.27;2.45;;;;;;;;;;5070701;28;20047;-80
2021/01/13 05:53:51;;;;;;;14.77;2.33;;;;;;;;;;5070445;28;20119;-81
2021/01/13 05:56:21;;;;;;;11.02;2.35;;;;;;;;;;5070816;28;20407;-81
2021/01/13 05:58:47;;;;;;;10.38;2.55;;;;;;;;;;5071023;28;20016;-81
2021/01/13 06:01:36;;;;;;;15.70;2.55;;;;;;;;;;5072200;28;20053;-81
2021/01/13 06:04:06;;;;;;;17.98;3.42;;;;;;;;;;5067619;28;20025;-81
2021/01/13 06:06:35;;;;;;;11.65;2.67;;;;;;;;;;5070648;28;20017;-80
2021/01/13 06:09:01;;;;;;;16.15;3.70;;;;;;;;;;5070589;28;20108;-81
2021/01/13 06:11:29;;;;;;;13.70;3.03;;;;;;;;;;5070327;28;20039;-81
2021/01/13 06:13:57;;;;;;;17.88;2.92;;;;;;;;;;5075120;28;20021;-82
2021/01/13 06:16:23;;;;;;;13.45;2.83;;;;;;;;;;5074368;28;20489;-81
2021/01/13 06:18:50;;;;;;;18.75;4.35;;;;;;;;;;5075564;28;20020;-81
2021/01/13 06:21:16;;;;;;;13.15;3.55;;;;;;;;;;5076022;28;20021;-81
2021/01/13 06:23:50;;;;;;;19.17;4.25;;;;;;;;;;5074163;28;20017;-82
2021/01/13 06:26:16;;;;;;;19.73;4.75;;;;;;;;;;5075424;28;20364;-82
2021/01/13 06:29:01;;;;;;;13.32;3.38;;;;;;;;;;5075634;28;20019;-82
2021/01/13 06:31:28;;;;;;;16.00;3.85;;;;;;;;;;5075254;28;20076;-82
2021/01/13 06:34:06;;;;;;;22.15;4.38;;;;;;;;;;5073994;28;20017;-82
2021/01/13 06:36:32;;;;;;;16.95;5.00;;;;;;;;;;5073620;28;20016;-81
2021/01/13 06:39:05;;;;;;;18.15;5.95;;;;;;;;;;5073841;28;20017;-81
2021/01/13 06:41:43;;;;;;;13.48;4.55;;;;;;;;;;5074506;28;20365;-81
2021/01/13 06:44:09;;;;;;;15.82;3.50;;;;;;;;;;5074909;28;20104;-81
2021/01/13 06:46:35;;;;;;;17.90;3.78;;;;;;;;;;5073566;28;20056;-81
2021/01/13 06:49:11;;;;;;;18.02;3.15;;;;;;;;;;5073644;28;20052;-81
2021/01/13 06:51:41;;;;;;;10.98;2.67;;;;;;;;;;5073339;28;20032;-81
2021/01/13 06:54:07;;;;;;;10.57;3.30;;;;;;;;;;5073490;28;20111;-80
2021/01/13 06:56:35;;;;;;;11.32;2.83;;;;;;;;;;5073557;28;20123;-81
2021/01/13 06:59:01;;;;;;;18.42;5.28;;;;;;;;;;5073402;28;20017;-81
2021/01/13 07:01:28;;;;;;;21.40;3.80;;;;;;;;;;5073243;28;20020;-80
2021/01/13 07:04:12;;;;;;;23.25;3.60;;;;;;;;;;5073451;28;20441;-80
2021/01/13 07:06:38;;;;;;;42.72;5.55;;;;;;;;;;5073006;28;20028;-81
2021/01/13 07:09:04;;;;;;;16.15;3.15;;;;;;;;;;5073337;28;20403;-80
2021/01/13 07:11:35;;;;;;;17.85;3.85;;;;;;;;;;5074733;28;20074;-81
2021/01/13 07:14:05;;;;;;;16.95;4.10;;;;;;;;;;5073821;28;20476;-82
2021/01/13 07:16:51;;;;;;;16.00;3.92;;;;;;;;;;5073532;28;20020;-83
2021/01/13 07:19:17;;;;;;;19.42;3.95;;;;;;;;;;5073959;28;20028;-79
2021/01/13 07:21:43;;;;;;;23.83;5.10;;;;;;;;;;5072857;28;20086;-82
2021/01/13 07:24:13;;;;;;;29.50;8.75;;;;;;;;;;5073047;28;20028;-80
2021/01/13 07:26:40;;;;;;;21.67;4.75;;;;;;;;;;5072601;28;20099;-81
2021/01/13 07:29:06;;;;;;;14.10;3.67;;;;;;;;;;5072828;28;20070;-81
2021/01/13 07:31:33;;;;;;;14.05;3.70;;;;;;;;;;5072434;28;20038;-81
2021/01/13 07:34:03;;;;;;;12.15;2.97;;;;;;;;;;5072610;28;20028;-81
2021/01/13 07:36:31;;;;;;;10.82;3.00;;;;;;;;;;5072607;28;20028;-81
2021/01/13 07:39:03;;;;;;;11.85;2.80;;;;;;;;;;5072558;28;20048;-80
2021/01/13 07:41:50;;;;;;;17.33;3.03;;;;;;;;;;5071723;28;20029;-81
2021/01/13 07:44:38;;;;;;;11.90;2.15;;;;;;;;;;5058294;28;20468;-80
2021/01/13 07:47:04;;;;;;;13.15;2.10;;;;;;;;;;5070784;28;20052;-82
2021/01/13 07:49:49;;;;;;;9.68;2.42;;;;;;;;;;5069043;28;20025;-80
2021/01/13 07:52:23;;;;;;;17.48;3.53;;;;;;;;;;5070438;28;20024;-82
2021/01/13 07:54:50;;;;;;;15.85;2.45;;;;;;;;;;5068647;28;20017;-81
2021/01/13 07:57:22;;;;;;;11.25;3.33;;;;;;;;;;5069763;28;20406;-82
2021/01/13 08:00:03;;;;;;;14.32;2.17;;;;;;;;;;5071024;28;20020;-81
2021/01/13 08:02:42;;;;;;;17.52;3.97;;;;;;;;;;5071129;28;20020;-81
2021/01/13 08:05:20;;;;;;;17.17;3.70;;;;;;;;;;5072509;28;20088;-82
2021/01/13 08:08:03;;;;;;;11.35;3.05;;;;;;;;;;5072188;28;20467;-82
2021/01/13 08:10:30;;;;;;;11.00;3.40;;;;;;;;;;5071344;28;20028;-81
2021/01/13 08:13:15;;;;;;;22.17;4.90;;;;;;;;;;5072647;28;20448;-81
2021/01/13 08:15:41;;;;;;;11.20;3.22;;;;;;;;;;5070880;28;20024;-82
2021/01/13 08:18:13;;;;;;;16.40;3.35;;;;;;;;;;5071214;28;20019;-82
2021/01/13 08:21:00;;;;;;;12.35;2.90;;;;;;;;;;5071000;28;20024;-82
2021/01/13 08:23:35;;;;;;;12.23;3.25;;;;;;;;;;5070683;28;20020;-82
2021/01/13 08:26:02;;;;;;;19.70;3.50;;;;;;;;;;5070890;28;20094;-81
2021/01/13 08:28:36;;;;;;;25.17;4.53;;;;;;;;;;5071053;28;20024;-81
2021/01/13 08:31:04;;;;;;;13.90;2.80;;;;;;;;;;5070957;28;20032;-82
2021/01/13 08:33:32;;;;;;;9.70;2.78;;;;;;;;;;5070868;28;20025;-82
2021/01/13 08:35:59;;;;;;;14.80;3.03;;;;;;;;;;5071261;28;20063;-82
2021/01/13 08:38:26;;;;;;;16.63;3.70;;;;;;;;;;5070674;28;20020;-81
2021/01/13 08:40:53;;;;;;;16.77;4.45;;;;;;;;;;5071668;28;20041;-81
2021/01/13 08:43:19;;;;;;;15.50;4.10;;;;;;;;;;5051482;28;589929;-81
2021/01/13 08:45:46;;;;;;;12.25;3.35;;;;;;;;;;5072074;28;20127;-81
2021/01/13 08:48:17;;;;;;;17.45;4.05;;;;;;;;;;5071104;28;20036;-82
2021/01/13 08:50:44;;;;;;;32.10;9.02;;;;;;;;;;5070813;28;20035;-82
2021/01/13 08:53:24;;;;;;;23.10;7.30;;;;;;;;;;5072705;28;20075;-81
2021/01/13 08:55:54;;;;;;;55.17;18.55;;;;;;;;;;5071105;28;20025;-80
2021/01/13 08:58:33;;;;;;;29.90;9.57;;;;;;;;;;5071043;28;20017;-81
2021/01/13 09:01:09;;;;;;;11.38;3.67;;;;;;;;;;5071112;28;20085;-80
2021/01/13 09:03:39;;;;;;;19.58;4.43;;;;;;;;;;5067829;28;20017;-80
2021/01/13 09:06:18;;;;;;;13.15;2.80;;;;;;;;;;5070797;28;20064;-81
2021/01/13 09:08:47;;;;;;;7.47;2.30;;;;;;;;;;5070729;28;20020;-80
2021/01/13 09:11:28;;;;;;;16.15;2.90;;;;;;;;;;5071725;28;20611;-81
2021/01/13 09:13:54;;;;;;;13.02;2.90;;;;;;;;;;5070673;28;20086;-80
2021/01/13 09:16:23;;;;;;;12.60;2.97;;;;;;;;;;5070985;28;20024;-79
2021/01/13 09:18:59;;;;;;;17.00;3.10;;;;;;;;;;5071078;28;20017;-82
2021/01/13 09:21:39;;;;;;;12.95;3.33;;;;;;;;;;5071689;28;20024;-82
2021/01/13 09:24:06;;;;;;;17.33;3.40;;;;;;;;;;5051674;28;20461;-82
2021/01/13 09:26:33;;;;;;;13.18;2.35;;;;;;;;;;5052221;28;20365;-80
2021/01/13 09:29:04;;;;;;;10.00;3.65;;;;;;;;;;5052290;28;20013;-83
2021/01/13 09:31:30;;;;;;;19.52;3.78;;;;;;;;;;5053525;28;20043;-81
2021/01/13 09:33:57;;;;;;;16.80;3.00;;;;;;;;;;5052757;28;20025;-82
2021/01/13 09:36:23;;;;;;;13.43;3.35;;;;;;;;;;5053434;28;20048;-81
2021/01/13 09:38:49;;;;;;;9.98;3.08;;;;;;;;;;5051762;28;20014;-80
2021/01/13 09:41:23;;;;;;;12.57;2.85;;;;;;;;;;5050873;28;20032;-78
2021/01/13 09:43:49;;;;;;;12.10;3.75;;;;;;;;;;5052400;28;20045;-79
2021/01/13 09:46:21;;;;;;;10.63;2.47;;;;;;;;;;5051282;28;20016;-78
2021/01/13 09:49:02;;;;;;;13.40;2.63;;;;;;;;;;5053276;28;20365;-79
2021/01/13 09:51:29;;;;;;;9.13;2.42;;;;;;;;;;5054577;28;20453;-80
2021/01/13 09:53:57;;;;;;;7.07;2.00;;;;;;;;;;5054515;28;20199;-80
2021/01/13 09:56:24;;;;;;;9.88;2.58;;;;;;;;;;5056843;28;20021;-80
2021/01/13 09:58:53;;;;;;;9.70;2.20;;;;;;;;;;5055529;28;20410;-79
2021/01/13 10:01:20;;;;;;;12.63;2.80;;;;;;;;;;5055510;28;20024;-77
2021/01/13 10:03:50;;;;;;;13.30;2.08;;;;;;;;;;5054698;28;20453;-78
2021/01/13 10:06:21;;;;;;;11.85;1.98;;;;;;;;;;5055375;28;20020;-79
2021/01/13 10:08:48;;;;;;;9.30;2.85;;;;;;;;;;5056076;28;20431;-78
2021/01/13 10:11:14;;;;;;;10.65;2.13;;;;;;;;;;5056046;28;20028;-78
2021/01/13 10:13:41;;;;;;;13.82;2.83;;;;;;;;;;5054723;28;20346;-79
2021/01/13 10:16:08;;;;;;;13.23;3.08;;;;;;;;;;5056262;28;20013;-79
2021/01/13 10:18:34;;;;;;;8.70;2.30;;;;;;;;;;5054432;28;20084;-79
2021/01/13 10:21:01;;;;;;;14.70;3.88;;;;;;;;;;5054776;28;20029;-79
2021/01/13 10:23:28;;;;;;;14.38;2.65;;;;;;;;;;5054293;28;20024;-79
2021/01/13 10:26:03;;;;;;;12.57;3.05;;;;;;;;;;5054901;28;20032;-80
2021/01/13 10:28:29;;;;;;;13.63;2.80;;;;;;;;;;5055696;28;20025;-86
2021/01/13 10:30:55;;;;;;;12.88;3.78;;;;;;;;;;5055316;28;20029;-84
2021/01/13 10:33:40;;;;;;;12.25;2.63;;;;;;;;;;5055556;28;20416;-82
2021/01/13 10:36:07;;;;;;;14.23;3.80;;;;;;;;;;5056606;28;20009;-83
2021/01/13 10:38:36;;;;;;;12.02;3.20;;;;;;;;;;5055474;28;20534;-83
2021/01/13 10:41:03;;;;;;;14.23;4.28;;;;;;;;;;5055289;28;20027;-81
2021/01/13 10:43:30;;;;;;;13.68;4.05;;;;;;;;;;5055242;28;20087;-80
2021/01/13 10:45:57;;;;;;;12.05;3.13;;;;;;;;;;5054678;28;20518;-81
2021/01/13 10:48:23;;;;;;;13.27;2.92;;;;;;;;;;5055114;28;20124;-82
2021/01/13 10:50:50;;;;;;;11.15;2.83;;;;;;;;;;5054447;28;20469;-82
2021/01/13 10:53:16;;;;;;;13.02;2.85;;;;;;;;;;5056724;28;20027;-82
2021/01/13 10:55:48;;;;;;;8.25;2.58;;;;;;;;;;5054663;28;20029;-82
2021/01/13 10:58:15;;;;;;;12.80;2.72;;;;;;;;;;5055048;28;20373;-82
2021/01/13 11:00:41;;;;;;;21.25;3.00;;;;;;;;;;5054731;28;20028;-84
2021/01/13 11:03:07;;;;;;;16.73;3.42;;;;;;;;;;5056109;28;20067;-83
2021/01/13 11:05:34;;;;;;;10.60;2.40;;;;;;;;;;5053822;28;20036;-82
2021/01/13 11:08:03;;;;;;;15.95;3.15;;;;;;;;;;5054861;28;20047;-82
2021/01/13 11:10:29;;;;;;;8.88;2.22;;;;;;;;;;5055364;28;20024;-82
2021/01/13 11:13:02;;;;;;;8.85;2.75;;;;;;;;;;5054571;28;20032;-81
2021/01/13 11:15:28;;;;;;;16.75;4.47;;;;;;;;;;5054623;28;20461;-81
2021/01/13 11:17:58;;;;;;;15.80;2.38;;;;;;;;;;5056301;28;20035;-82
2021/01/13 11:20:24;;;;;;;11.43;2.60;;;;;;;;;;5054837;28;20403;-82
2021/01/13 11:22:57;;;;;;;10.23;1.98;;;;;;;;;;5055270;28;20029;-81
2021/01/13 11:25:37;;;;;;;10.60;2.00;;;;;;;;;;5054469;28;20516;-85
2021/01/13 11:28:04;;;;;;;12.00;2.70;;;;;;;;;;5054601;28;20017;-84
2021/01/13 11:30:31;;;;;;;15.60;3.50;;;;;;;;;;5054543;28;20811;-85
2021/01/13 11:32:58;;;;;;;10.65;2.28;;;;;;;;;;5054711;28;20028;-85
2021/01/13 11:35:33;;;;;;;10.73;2.30;;;;;;;;;;5052995;28;20025;-84
2021/01/13 11:38:18;;;;;;;11.40;2.78;;;;;;;;;;5052538;28;20012;-84
2021/01/13 11:40:53;;;;;;;8.18;1.60;;;;;;;;;;5053741;28;20469;-85
2021/01/13 11:43:45;;;;;;;9.40;2.00;;;;;;;;;;5052692;28;20040;-85
2021/01/13 11:46:14;;;;;;;11.32;2.50;;;;;;;;;;5052420;28;20029;-85
2021/01/13 11:48:55;;;;;;;11.75;2.15;;;;;;;;;;5053835;28;20123;-84
2021/01/13 11:51:22;;;;;;;20.30;2.95;;;;;;;;;;5053817;28;20441;-84
2021/01/13 11:53:48;;;;;;;9.77;2.15;;;;;;;;;;5052369;28;20074;-84
2021/01/13 11:56:14;;;;;;;12.88;2.20;;;;;;;;;;5052614;28;20088;-84
2021/01/13 11:58:50;;;;;;;8.60;2.42;;;;;;;;;;5053490;28;20051;-84
2021/01/13 12:01:16;;;;;;;13.32;2.50;;;;;;;;;;5060351;28;20072;-84
2021/01/13 12:03:42;;;;;;;12.15;2.25;;;;;;;;;;5057103;28;20361;-85
2021/01/13 12:06:08;;;;;;;11.80;1.90;;;;;;;;;;5062616;28;20017;-84
2021/01/13 12:08:34;;;;;;;11.10;2.25;;;;;;;;;;5060400;28;20359;-83
2021/01/13 12:11:01;;;;;;;10.55;2.25;;;;;;;;;;5061189;28;20107;-84
2021/01/13 12:13:28;;;;;;;10.05;2.00;;;;;;;;;;5062437;28;20029;-85
2021/01/13 12:16:04;;;;;;;7.50;1.92;;;;;;;;;;5059893;28;20078;-84
2021/01/13 12:18:34;;;;;;;10.27;2.30;;;;;;;;;;5062155;28;20017;-84
2021/01/13 12:21:27;;;;;;;8.20;1.83;;;;;;;;;;5063418;28;20017;-83
2021/01/13 12:23:53;;;;;;;7.80;1.80;;;;;;;;;;5060871;28;20259;-84
2021/01/13 12:26:19;;;;;;;8.48;1.77;;;;;;;;;;5061105;28;20028;-84
2021/01/13 12:29:09;;;;;;;7.80;1.70;;;;;;;;;;5062387;28;20005;-84
2021/01/13 12:31:37;;;;;;;13.02;2.22;;;;;;;;;;5063853;28;20039;-84
2021/01/13 12:34:03;;;;;;;10.90;2.10;;;;;;;;;;5061767;28;20017;-83
2021/01/13 12:36:39;;;;;;;9.02;1.60;;;;;;;;;;5061577;28;20461;-82
2021/01/13 12:39:06;;;;;;;5.78;1.25;;;;;;;;;;5061650;28;20336;-81
2021/01/13 12:41:33;;;;;;;7.15;1.60;;;;;;;;;;5058258;28;20120;-80
2021/01/13 12:44:04;;;;;;;5.60;1.60;;;;;;;;;;5059430;28;20013;-82
2021/01/13 12:46:31;;;;;;;8.27;1.70;;;;;;;;;;5063386;28;20032;-82
2021/01/13 12:48:58;;;;;;;10.77;2.25;;;;;;;;;;5061280;28;20031;-81
2021/01/13 12:51:24;;;;;;;13.07;1.50;;;;;;;;;;5061475;28;20025;-82
2021/01/13 12:53:53;;;;;;;7.22;1.63;;;;;;;;;;5061274;28;20020;-82
2021/01/13 12:56:29;;;;;;;7.22;1.83;;;;;;;;;;5061393;28;20024;-83
2021/01/13 12:58:56;;;;;;;17.15;3.20;;;;;;;;;;5061412;28;20116;-82
2021/01/13 13:01:22;;;;;;;6.80;1.63;;;;;;;;;;5057077;28;20485;-83
2021/01/13 13:03:49;;;;;;;6.85;1.60;;;;;;;;;;5065871;28;20017;-79
2021/01/13 13:06:25;;;;;;;8.18;2.00;;;;;;;;;;5072979;28;20021;-82
2021/01/13 13:08:51;;;;;;;14.50;3.78;;;;;;;;;;5070770;28;20031;-82
2021/01/13 13:11:17;;;;;;;14.02;2.80;;;;;;;;;;5071096;28;20477;-81
2021/01/13 13:13:43;;;;;;;18.08;7.50;;;;;;;;;;5071813;28;20035;-83
2021/01/13 13:16:09;;;;;;;8.30;1.52;;;;;;;;;;5072100;28;20016;-82
2021/01/13 13:18:37;;;;;;;5.32;1.48;;;;;;;;;;5073965;28;20017;-82
2021/01/13 13:21:03;;;;;;;9.50;2.13;;;;;;;;;;5073725;28;20039;-83
2021/01/13 13:23:30;;;;;;;7.63;1.92;;;;;;;;;;5056336;28;20055;-83
2021/01/13 13:25:56;;;;;;;7.88;1.65;;;;;;;;;;5053731;28;20013;-83
2021/01/13 13:28:22;;;;;;;9.48;1.92;;;;;;;;;;5052227;28;20016;-83
2021/01/13 13:30:48;;;;;;;9.73;1.42;;;;;;;;;;5071446;28;20042;-81
2021/01/13 13:33:14;;;;;;;8.30;1.27;;;;;;;;;;5073059;28;20039;-83
2021/01/13 13:35:40;;;;;;;8.35;1.92;;;;;;;;;;5072560;28;20020;-83
2021/01/13 13:38:06;;;;;;;10.35;2.15;;;;;;;;;;5072786;28;20019;-84
2021/01/13 13:40:32;;;;;;;9.52;1.70;;;;;;;;;;5074118;28;20029;-81
2021/01/13 13:42:58;;;;;;;11.45;2.20;;;;;;;;;;5072580;28;20051;-84
2021/01/13 13:45:24;;;;;;;7.68;1.50;;;;;;;;;;5073130;28;20028;-82
2021/01/13 13:47:50;;;;;;;7.72;1.50;;;;;;;;;;5073357;28;20067;-83
2021/01/13 13:50:16;;;;;;;7.53;1.75;;;;;;;;;;5072575;28;20787;-83
2021/01/13 13:52:42;;;;;;;7.63;1.75;;;;;;;;;;5072387;28;20033;-81
2021/01/13 13:55:08;;;;;;;7.25;1.42;;;;;;;;;;5072387;28;20024;-80
2021/01/13 13:57:34;;;;;;;8.48;1.55;;;;;;;;;;5071998;28;20056;-84
2021/01/13 14:00:01;;;;;;;9.10;1.38;;;;;;;;;;5071727;28;20449;-85
2021/01/13 14:02:27;;;;;;;6.95;1.23;;;;;;;;;;5072587;28;20023;-81
2021/01/13 14:04:53;;;;;;;8.15;2.10;;;;;;;;;;5074230;28;20070;-83
2021/01/13 14:07:19;;;;;;;7.35;1.63;;;;;;;;;;5071150;28;20021;-85
2021/01/13 14:09:46;;;;;;;9.38;2.03;;;;;;;;;;5071074;28;20016;-79
2021/01/13 14:12:12;;;;;;;8.32;1.77;;;;;;;;;;5071687;28;20021;-82
2021/01/13 14:14:38;;;;;;;7.35;2.17;;;;;;;;;;5071567;28;20023;-84
2021/01/13 14:17:04;;;;;;;9.00;2.08;;;;;;;;;;5070375;28;20020;-82
2021/01/13 14:19:30;;;;;;;7.10;1.50;;;;;;;;;;5071451;28;20025;-82
2021/01/13 14:21:56;;;;;;;10.60;2.55;;;;;;;;;;5072271;28;20017;-81
2021/01/13 14:24:22;;;;;;;9.63;1.73;;;;;;;;;;5071573;28;20410;-81
2021/01/13 14:26:49;;;;;;;9.48;1.60;;;;;;;;;;5070246;28;20020;-83
2021/01/13 14:29:15;;;;;;;11.00;1.85;;;;;;;;;;5070337;28;20045;-81
2021/01/13 14:31:41;;;;;;;12.30;2.63;;;;;;;;;;5071496;28;20017;-81
2021/01/13 14:34:07;;;;;;;7.53;1.55;;;;;;;;;;5071941;28;20028;-82
2021/01/13 14:36:33;;;;;;;10.93;2.63;;;;;;;;;;5073826;28;20021;-81
2021/01/13 14:39:00;;;;;;;10.10;1.83;;;;;;;;;;5073496;28;20453;-81
2021/01/13 14:41:30;;;;;;;14.68;2.60;;;;;;;;;;5074902;28;20063;-81
2021/01/13 14:43:56;;;;;;;7.10;1.50;;;;;;;;;;5073314;28;20410;-81
2021/01/13 14:46:23;;;;;;;10.75;1.45;;;;;;;;;;5073466;28;20103;-81
2021/01/13 14:48:49;;;;;;;12.85;2.13;;;;;;;;;;5074506;28;20492;-81